createdAt,value
2018-11-21T00:00:23.545Z,15.28
2018-11-21T00:01:27.626Z,13.80
2018-11-21T00:02:31.774Z,12.82
2018-11-21T00:03:35.837Z,14.23
2018-11-21T00:04:39.845Z,13.60
2018-11-21T00:05:43.911Z,13.70
2018-11-21T00:06:47.923Z,15.05
2018-11-21T00:07:52.040Z,15.55
2018-11-21T00:08:55.478Z,15.08
2018-11-21T00:09:59.543Z,13.03
2018-11-21T00:11:03.585Z,14.40
2018-11-21T00:12:07.607Z,15.15
2018-11-21T00:13:11.641Z,15.60
2018-11-21T00:14:15.664Z,14.87
2018-11-21T00:15:19.645Z,15.05
2018-11-21T00:16:24.048Z,13.80
2018-11-21T00:17:28.028Z,15.88
2018-11-21T00:18:32.069Z,15.48
2018-11-21T00:19:36.064Z,14.53
2018-11-21T00:20:40.400Z,16.05
2018-11-21T00:21:44.824Z,15.10
2018-11-21T00:22:48.859Z,14.55
2018-11-21T00:23:52.885Z,15.63
2018-11-21T00:24:57.133Z,14.60
2018-11-21T00:26:01.089Z,15.30
2018-11-21T00:27:05.151Z,13.38
2018-11-21T00:28:09.172Z,15.15
2018-11-21T00:29:13.160Z,15.03
2018-11-21T00:30:17.295Z,15.35
2018-11-21T00:31:21.374Z,14.60
2018-11-21T00:32:26.388Z,15.08
2018-11-21T00:33:30.530Z,13.98
2018-11-21T00:34:34.558Z,15.68
2018-11-21T00:35:38.582Z,13.30
2018-11-21T00:36:42.721Z,15.53
2018-11-21T00:37:47.115Z,14.23
2018-11-21T00:38:51.216Z,14.10
2018-11-21T00:39:55.388Z,15.55
2018-11-21T00:40:59.441Z,14.30
2018-11-21T00:42:03.806Z,13.58
2018-11-21T00:43:07.840Z,15.45
2018-11-21T00:44:13.975Z,14.33
2018-11-21T00:45:16.251Z,13.85
2018-11-21T00:46:20.344Z,14.63
2018-11-21T00:47:24.360Z,14.13
2018-11-21T00:48:28.425Z,14.70
2018-11-21T00:49:32.480Z,14.65
2018-11-21T00:50:36.700Z,14.68
2018-11-21T00:51:41.208Z,15.50
2018-11-21T00:52:45.351Z,15.55
2018-11-21T00:53:49.452Z,14.47
2018-11-21T00:54:53.509Z,14.90
2018-11-21T00:55:57.457Z,15.40
2018-11-21T00:57:01.442Z,15.25
2018-11-21T00:58:05.629Z,15.63
2018-11-21T00:59:09.769Z,14.63
2018-11-21T01:00:13.792Z,15.35
2018-11-21T01:01:18.145Z,15.25
2018-11-21T01:02:22.335Z,15.03
2018-11-21T01:03:26.281Z,15.30
2018-11-21T01:04:30.618Z,14.60
2018-11-21T01:05:34.655Z,13.98
2018-11-21T01:06:38.700Z,16.25
2018-11-21T01:07:42.749Z,15.65
2018-11-21T01:08:47.046Z,14.10
2018-11-21T01:09:51.425Z,16.48
2018-11-21T01:10:55.444Z,15.00
2018-11-21T01:11:59.470Z,15.80
2018-11-21T01:13:03.745Z,16.15
2018-11-21T01:14:07.809Z,14.55
2018-11-21T01:15:11.943Z,14.25
2018-11-21T01:16:16.290Z,14.78
2018-11-21T01:17:20.419Z,14.20
2018-11-21T01:18:24.866Z,15.45
2018-11-21T01:19:28.996Z,14.83
2018-11-21T01:20:33.096Z,15.20
2018-11-21T01:21:37.188Z,15.00
2018-11-21T01:22:41.305Z,15.70
2018-11-21T01:23:45.343Z,15.00
2018-11-21T01:24:49.375Z,14.90
2018-11-21T01:25:53.423Z,15.45
2018-11-21T01:26:57.884Z,14.60
2018-11-21T01:28:02.278Z,14.68
2018-11-21T01:29:06.383Z,14.15
2018-11-21T01:30:10.501Z,15.40
2018-11-21T01:31:14.586Z,14.83
2018-11-21T01:32:18.606Z,14.33
2018-11-21T01:33:22.691Z,13.68
2018-11-21T01:34:26.701Z,15.83
2018-11-21T01:35:30.725Z,15.70
2018-11-21T01:36:35.521Z,14.85
2018-11-21T01:37:39.532Z,14.05
2018-11-21T01:38:43.587Z,14.50
2018-11-21T01:39:47.623Z,15.60
2018-11-21T01:40:51.658Z,14.35
2018-11-21T01:41:55.853Z,13.85
2018-11-21T01:42:59.883Z,15.40
2018-11-21T01:44:03.996Z,15.35
2018-11-21T01:45:08.278Z,15.43
2018-11-21T01:46:12.264Z,14.20
2018-11-21T01:47:16.343Z,16.07
2018-11-21T01:48:20.351Z,14.45
2018-11-21T01:49:24.856Z,15.13
2018-11-21T01:50:29.247Z,14.35
2018-11-21T01:51:33.729Z,14.58
2018-11-21T01:52:37.784Z,14.05
2018-11-21T01:53:41.922Z,16.23
2018-11-21T01:54:46.005Z,14.50
2018-11-21T01:55:50.049Z,15.50
2018-11-21T01:56:54.106Z,14.83
2018-11-21T01:57:58.287Z,14.43
2018-11-21T01:59:02.256Z,15.25
2018-11-21T02:00:08.347Z,15.48
2018-11-21T02:01:12.365Z,14.65
2018-11-21T02:02:16.653Z,14.50
2018-11-21T02:03:21.075Z,14.33
2018-11-21T02:04:25.163Z,15.50
2018-11-21T02:05:29.412Z,14.78
2018-11-21T02:06:33.560Z,16.02
2018-11-21T02:07:37.695Z,16.30
2018-11-21T02:08:42.052Z,14.93
2018-11-21T02:09:46.071Z,14.95
2018-11-21T02:10:50.141Z,15.90
2018-11-21T02:11:54.196Z,14.83
2018-11-21T02:12:58.286Z,16.85
2018-11-21T02:14:02.760Z,15.10
2018-11-21T02:15:06.915Z,17.48
2018-11-21T02:16:10.927Z,15.13
2018-11-21T02:17:15.003Z,14.50
2018-11-21T02:18:19.005Z,15.28
2018-11-21T02:19:23.097Z,15.40
2018-11-21T02:20:27.102Z,14.30
2018-11-21T02:21:31.146Z,18.85
2018-11-21T02:22:35.176Z,15.25
2018-11-21T02:23:39.464Z,16.52
2018-11-21T02:24:43.538Z,15.65
2018-11-21T02:25:47.551Z,15.63
2018-11-21T02:26:51.590Z,14.35
2018-11-21T02:27:55.633Z,16.25
2018-11-21T02:28:59.726Z,15.32
2018-11-21T02:30:03.906Z,15.90
2018-11-21T02:31:08.019Z,15.25
2018-11-21T02:32:12.324Z,15.08
2018-11-21T02:33:16.363Z,16.60
2018-11-21T02:34:20.446Z,15.15
2018-11-21T02:35:24.515Z,16.10
2018-11-21T02:36:28.621Z,15.68
2018-11-21T02:37:32.772Z,17.00
2018-11-21T02:38:36.812Z,17.00
2018-11-21T02:39:40.870Z,17.00
2018-11-21T02:40:44.893Z,17.27
2018-11-21T02:41:49.051Z,16.20
2018-11-21T02:42:53.043Z,15.75
2018-11-21T02:43:57.089Z,16.30
2018-11-21T02:45:01.100Z,16.32
2018-11-21T02:46:05.606Z,15.63
2018-11-21T02:47:09.967Z,17.40
2018-11-21T02:48:14.013Z,17.25
2018-11-21T02:49:18.529Z,16.40
2018-11-21T02:50:22.609Z,15.05
2018-11-21T02:51:26.662Z,15.88
2018-11-21T02:52:30.832Z,17.02
2018-11-21T02:53:35.358Z,15.90
2018-11-21T02:54:39.436Z,18.90
2018-11-21T02:55:43.480Z,16.60
2018-11-21T02:57:19.756Z,16.82
2018-11-21T02:58:23.840Z,16.20
2018-11-21T02:59:27.944Z,15.00
2018-11-21T03:00:32.009Z,17.25
2018-11-21T03:01:36.023Z,16.42
2018-11-21T03:02:40.172Z,16.12
2018-11-21T03:03:44.529Z,16.20
2018-11-21T03:04:48.564Z,16.60
2018-11-21T03:05:53.006Z,16.80
2018-11-21T03:06:57.123Z,16.85
2018-11-21T03:08:01.923Z,16.60
2018-11-21T03:09:07.595Z,16.37
2018-11-21T03:10:11.762Z,15.45
2018-11-21T03:11:16.290Z,15.98
2018-11-21T03:12:20.299Z,16.37
2018-11-21T03:13:28.409Z,17.70
2018-11-21T03:14:28.464Z,16.90
2018-11-21T03:15:32.577Z,16.90
2018-11-21T03:16:36.647Z,16.77
2018-11-21T03:17:40.743Z,17.55
2018-11-21T03:18:45.119Z,17.70
2018-11-21T03:19:49.159Z,17.48
2018-11-21T03:20:53.517Z,15.90
2018-11-21T03:21:57.618Z,17.42
2018-11-21T03:23:01.679Z,17.05
2018-11-21T03:24:05.951Z,16.80
2018-11-21T03:25:10.399Z,17.50
2018-11-21T03:26:14.467Z,17.65
2018-11-21T03:27:18.575Z,18.50
2018-11-21T03:28:22.663Z,16.17
2018-11-21T03:29:26.765Z,17.52
2018-11-21T03:30:31.197Z,16.67
2018-11-21T03:31:35.314Z,16.12
2018-11-21T03:32:39.998Z,15.90
2018-11-21T03:33:44.545Z,17.27
2018-11-21T03:34:48.511Z,16.20
2018-11-21T03:35:52.603Z,17.32
2018-11-21T03:36:56.737Z,17.65
2018-11-21T03:38:01.655Z,17.15
2018-11-21T03:39:09.315Z,17.95
2018-11-21T03:40:13.526Z,17.20
2018-11-21T03:41:17.702Z,18.77
2018-11-21T03:42:21.770Z,18.48
2018-11-21T03:43:25.800Z,17.50
2018-11-21T03:44:29.914Z,16.55
2018-11-21T03:45:33.930Z,17.92
2018-11-21T03:46:38.097Z,17.52
2018-11-21T03:47:42.239Z,16.35
2018-11-21T03:48:46.622Z,17.35
2018-11-21T03:49:50.992Z,18.25
2018-11-21T03:50:55.047Z,17.20
2018-11-21T03:51:59.399Z,17.57
2018-11-21T03:53:03.445Z,17.40
2018-11-21T03:54:07.685Z,16.93
2018-11-21T03:55:12.119Z,17.42
2018-11-21T03:56:16.114Z,16.85
2018-11-21T03:57:20.220Z,17.00
2018-11-21T03:58:24.426Z,17.90
2018-11-21T03:59:28.294Z,17.25
2018-11-21T04:00:32.791Z,16.65
2018-11-21T04:01:36.878Z,16.10
2018-11-21T04:02:41.333Z,18.10
2018-11-21T04:03:45.563Z,17.45
2018-11-21T04:04:49.661Z,16.82
2018-11-21T04:05:53.688Z,18.02
2018-11-21T04:06:57.787Z,16.37
2018-11-21T04:08:01.782Z,17.05
2018-11-21T04:09:10.876Z,17.92
2018-11-21T04:10:15.246Z,18.27
2018-11-21T04:11:19.609Z,17.23
2018-11-21T04:12:24.045Z,15.98
2018-11-21T04:13:28.065Z,19.25
2018-11-21T04:14:32.103Z,17.98
2018-11-21T04:15:36.140Z,17.92
2018-11-21T04:16:40.136Z,15.95
2018-11-21T04:17:44.679Z,16.45
2018-11-21T04:18:52.987Z,16.25
2018-11-21T04:19:57.439Z,17.12
2018-11-21T04:21:01.481Z,16.23
2018-11-21T04:22:05.534Z,16.45
2018-11-21T04:23:09.553Z,17.73
2018-11-21T04:24:13.583Z,17.32
2018-11-21T04:25:17.909Z,15.45
2018-11-21T04:26:22.319Z,18.45
2018-11-21T04:27:26.343Z,16.52
2018-11-21T04:28:30.453Z,16.97
2018-11-21T04:29:34.867Z,16.93
2018-11-21T04:30:38.861Z,17.40
2018-11-21T04:31:43.219Z,17.67
2018-11-21T04:32:47.285Z,16.35
2018-11-21T04:33:51.373Z,17.32
2018-11-21T04:34:55.405Z,17.23
2018-11-21T04:35:59.831Z,16.55
2018-11-21T04:37:03.944Z,17.42
2018-11-21T04:38:07.958Z,17.60
2018-11-21T04:39:12.645Z,18.10
2018-11-21T04:40:16.694Z,18.70
2018-11-21T04:41:20.830Z,17.77
2018-11-21T04:42:24.881Z,16.82
2018-11-21T04:43:29.277Z,17.48
2018-11-21T04:44:33.321Z,17.80
2018-11-21T04:45:37.364Z,16.85
2018-11-21T04:46:41.834Z,16.30
2018-11-21T04:47:45.747Z,17.48
2018-11-21T04:48:49.846Z,18.48
2018-11-21T04:49:54.277Z,18.15
2018-11-21T04:50:58.730Z,18.20
2018-11-21T04:52:03.091Z,17.80
2018-11-21T04:53:07.140Z,18.10
2018-11-21T04:54:13.840Z,19.42
2018-11-21T04:55:15.236Z,18.12
2018-11-21T04:56:19.525Z,17.70
2018-11-21T04:57:23.552Z,19.80
2018-11-21T04:58:27.585Z,19.92
2018-11-21T04:59:31.613Z,19.62
2018-11-21T05:00:35.911Z,19.80
2018-11-21T05:01:43.339Z,19.40
2018-11-21T05:02:44.347Z,18.35
2018-11-21T05:03:48.413Z,17.55
2018-11-21T05:04:52.507Z,18.37
2018-11-21T05:05:58.543Z,19.42
2018-11-21T05:07:00.841Z,18.05
2018-11-21T05:08:04.897Z,18.45
2018-11-21T05:09:10.519Z,18.02
2018-11-21T05:10:14.571Z,18.60
2018-11-21T05:11:18.583Z,18.20
2018-11-21T05:12:22.616Z,18.75
2018-11-21T05:13:26.707Z,19.30
2018-11-21T05:14:30.830Z,18.62
2018-11-21T05:15:34.932Z,18.90
2018-11-21T05:16:39.338Z,18.00
2018-11-21T05:17:43.487Z,18.12
2018-11-21T05:18:47.499Z,19.85
2018-11-21T05:19:51.686Z,18.67
2018-11-21T05:20:55.696Z,20.15
2018-11-21T05:22:00.133Z,18.30
2018-11-21T05:23:04.197Z,19.32
2018-11-21T05:24:08.602Z,19.48
2018-11-21T05:25:12.563Z,17.65
2018-11-21T05:26:16.662Z,19.10
2018-11-21T05:27:21.182Z,18.82
2018-11-21T05:28:25.226Z,18.50
2018-11-21T05:29:29.262Z,18.90
2018-11-21T05:30:33.311Z,18.73
2018-11-21T05:31:37.451Z,27.05
2018-11-21T05:32:41.505Z,20.27
2018-11-21T05:33:45.534Z,19.10
2018-11-21T05:34:49.637Z,19.05
2018-11-21T05:35:53.682Z,18.67
2018-11-21T05:36:57.819Z,18.65
2018-11-21T05:38:02.225Z,19.35
2018-11-21T05:39:09.425Z,19.05
2018-11-21T05:40:13.453Z,19.70
2018-11-21T05:41:17.573Z,18.95
2018-11-21T05:42:21.765Z,18.70
2018-11-21T05:43:25.869Z,18.87
2018-11-21T05:44:31.487Z,20.23
2018-11-21T05:45:34.260Z,19.37
2018-11-21T05:46:38.510Z,19.12
2018-11-21T05:47:42.573Z,19.25
2018-11-21T05:48:47.003Z,20.32
2018-11-21T05:49:51.437Z,20.52
2018-11-21T05:50:55.888Z,19.45
2018-11-21T05:52:00.569Z,20.45
2018-11-21T05:53:04.756Z,21.10
2018-11-21T05:54:08.750Z,19.73
2018-11-21T05:55:13.179Z,19.60
2018-11-21T05:56:17.227Z,20.40
2018-11-21T05:57:21.369Z,19.37
2018-11-21T05:58:25.481Z,19.80
2018-11-21T05:59:29.831Z,19.37
2018-11-21T06:00:33.947Z,21.00
2018-11-21T06:01:38.047Z,19.98
2018-11-21T06:02:42.167Z,19.37
2018-11-21T06:03:46.265Z,21.20
2018-11-21T06:04:50.368Z,20.55
2018-11-21T06:05:54.427Z,20.65
2018-11-21T06:06:58.604Z,19.37
2018-11-21T06:08:02.858Z,20.95
2018-11-21T06:09:10.306Z,21.55
2018-11-21T06:10:15.035Z,19.85
2018-11-21T06:11:19.121Z,20.88
2018-11-21T06:12:23.136Z,19.75
2018-11-21T06:13:27.263Z,20.05
2018-11-21T06:14:31.316Z,21.48
2018-11-21T06:15:35.375Z,19.77
2018-11-21T06:16:39.442Z,20.05
2018-11-21T06:17:48.039Z,20.17
2018-11-21T06:18:47.864Z,21.42
2018-11-21T06:19:52.054Z,19.77
2018-11-21T06:20:58.782Z,19.42
2018-11-21T06:22:00.477Z,19.07
2018-11-21T06:23:04.470Z,20.62
2018-11-21T06:24:08.609Z,20.30
2018-11-21T06:25:13.228Z,24.18
2018-11-21T06:26:17.231Z,19.65
2018-11-21T06:27:21.235Z,20.82
2018-11-21T06:28:25.349Z,20.82
2018-11-21T06:29:29.893Z,20.88
2018-11-21T06:30:34.256Z,21.00
2018-11-21T06:31:38.419Z,20.70
2018-11-21T06:32:42.476Z,20.68
2018-11-21T06:33:46.538Z,19.23
2018-11-21T06:34:50.562Z,21.15
2018-11-21T06:35:54.628Z,20.48
2018-11-21T06:36:58.769Z,19.17
2018-11-21T06:38:03.271Z,21.25
2018-11-21T06:39:07.785Z,20.97
2018-11-21T06:40:13.720Z,24.32
2018-11-21T06:41:17.745Z,21.80
2018-11-21T06:42:21.830Z,20.92
2018-11-21T06:43:25.888Z,21.95
2018-11-21T06:44:29.903Z,21.90
2018-11-21T06:45:34.007Z,23.15
2018-11-21T06:46:38.130Z,20.95
2018-11-21T06:47:42.426Z,21.87
2018-11-21T06:48:47.016Z,21.40
2018-11-21T06:49:51.054Z,25.02
2018-11-21T06:50:55.360Z,23.27
2018-11-21T06:51:59.915Z,21.77
2018-11-21T06:53:04.213Z,24.10
2018-11-21T06:54:10.635Z,24.00
2018-11-21T06:55:14.751Z,22.35
2018-11-21T06:56:19.256Z,22.80
2018-11-21T06:57:23.277Z,23.47
2018-11-21T06:58:27.479Z,22.32
2018-11-21T06:59:31.575Z,21.15
2018-11-21T07:00:35.676Z,19.23
2018-11-21T07:01:39.678Z,21.12
2018-11-21T07:02:43.709Z,20.90
2018-11-21T07:03:47.788Z,20.55
2018-11-21T07:04:51.939Z,19.60
2018-11-21T07:05:55.987Z,18.10
2018-11-21T07:07:00.713Z,20.32
2018-11-21T07:08:04.684Z,20.10
2018-11-21T07:09:10.210Z,22.52
2018-11-21T07:10:15.335Z,19.90
2018-11-21T07:11:19.352Z,21.87
2018-11-21T07:12:23.655Z,22.05
2018-11-21T07:13:27.724Z,21.23
2018-11-21T07:14:32.236Z,21.27
2018-11-21T07:15:36.565Z,21.25
2018-11-21T07:16:41.101Z,19.80
2018-11-21T07:17:45.226Z,20.97
2018-11-21T07:18:55.506Z,20.05
2018-11-21T07:19:59.772Z,18.62
2018-11-21T07:21:03.861Z,20.35
2018-11-21T07:22:08.070Z,21.42
2018-11-21T07:23:12.099Z,21.05
2018-11-21T07:24:16.248Z,22.32
2018-11-21T07:25:21.840Z,21.80
2018-11-21T07:26:26.298Z,19.07
2018-11-21T07:27:30.660Z,20.72
2018-11-21T07:28:34.813Z,20.77
2018-11-21T07:29:39.131Z,19.10
2018-11-21T07:30:43.225Z,20.88
2018-11-21T07:31:47.249Z,20.92
2018-11-21T07:32:51.306Z,20.80
2018-11-21T07:33:55.329Z,21.48
2018-11-21T07:34:59.404Z,18.75
2018-11-21T07:36:03.705Z,21.82
2018-11-21T07:37:07.773Z,21.20
2018-11-21T07:38:11.809Z,20.50
2018-11-21T07:39:15.853Z,20.27
2018-11-21T07:40:19.916Z,20.52
2018-11-21T07:41:24.006Z,19.70
2018-11-21T07:42:28.122Z,20.68
2018-11-21T07:43:32.175Z,18.92
2018-11-21T07:44:36.208Z,21.33
2018-11-21T07:45:40.272Z,20.00
2018-11-21T07:46:44.373Z,21.40
2018-11-21T07:47:49.043Z,21.82
2018-11-21T07:48:53.067Z,22.02
2018-11-21T07:49:57.134Z,20.65
2018-11-21T07:51:02.432Z,21.15
2018-11-21T07:52:06.048Z,22.20
2018-11-21T07:53:10.152Z,20.15
2018-11-21T07:54:14.248Z,21.57
2018-11-21T07:55:18.267Z,21.82
2018-11-21T07:57:20.229Z,21.02
2018-11-21T07:58:25.494Z,22.65
2018-11-21T07:59:29.750Z,20.77
2018-11-21T08:01:30.643Z,22.20
2018-11-21T08:02:38.091Z,20.70
2018-11-21T08:03:44.322Z,20.88
2018-11-21T08:04:54.902Z,23.47
2018-11-21T08:06:05.229Z,21.55
2018-11-21T08:07:37.514Z,21.73
2018-11-21T08:09:06.494Z,21.12
2018-11-21T08:10:47.967Z,21.52
2018-11-21T08:12:10.033Z,20.82
2018-11-21T08:13:32.237Z,19.50
2018-11-21T08:14:54.815Z,19.90
2018-11-21T08:16:20.981Z,21.45
2018-11-21T08:17:53.756Z,20.35
2018-11-21T08:19:31.925Z,22.30
2018-11-21T08:20:58.082Z,21.20
2018-11-21T08:22:24.041Z,22.15
2018-11-21T08:23:36.850Z,19.95
2018-11-21T08:25:02.958Z,20.97
2018-11-21T08:26:35.071Z,21.57
2018-11-21T08:27:57.523Z,20.60
2018-11-21T08:29:01.703Z,21.90
2018-11-21T08:30:06.078Z,22.60
2018-11-21T08:31:10.495Z,23.27
2018-11-21T08:32:14.605Z,22.00
2018-11-21T08:33:18.752Z,22.37
2018-11-21T08:34:22.831Z,22.42
2018-11-21T08:35:26.855Z,21.62
2018-11-21T08:36:31.271Z,19.87
2018-11-21T08:37:35.488Z,20.82
2018-11-21T08:38:39.447Z,20.55
2018-11-21T08:39:43.472Z,22.45
2018-11-21T08:40:47.482Z,21.70
2018-11-21T08:41:51.957Z,19.95
2018-11-21T08:42:56.001Z,21.65
2018-11-21T08:44:00.207Z,20.25
2018-11-21T08:45:04.822Z,20.85
2018-11-21T08:46:10.178Z,19.40
2018-11-21T08:47:14.469Z,21.70
2018-11-21T08:48:19.279Z,20.20
2018-11-21T08:49:23.732Z,18.40
2018-11-21T08:50:27.751Z,20.27
2018-11-21T08:51:31.804Z,20.68
2018-11-21T08:52:36.128Z,20.77
2018-11-21T08:53:40.597Z,19.70
2018-11-21T08:54:44.827Z,21.45
2018-11-21T08:55:48.820Z,20.30
2018-11-21T08:56:52.921Z,21.62
2018-11-21T08:57:56.935Z,19.98
2018-11-21T08:59:01.108Z,21.15
2018-11-21T09:00:06.172Z,20.32
2018-11-21T09:01:10.552Z,19.75
2018-11-21T09:02:14.539Z,19.73
2018-11-21T09:03:18.670Z,21.48
2018-11-21T09:04:22.763Z,20.57
2018-11-21T09:05:26.978Z,18.65
2018-11-21T09:06:31.107Z,19.25
2018-11-21T09:07:35.503Z,20.75
2018-11-21T09:08:39.509Z,18.70
2018-11-21T09:09:43.589Z,19.05
2018-11-21T09:10:47.645Z,20.25
2018-11-21T09:11:51.938Z,19.40
2018-11-21T09:12:55.952Z,21.23
2018-11-21T09:14:00.030Z,20.82
2018-11-21T09:15:04.622Z,19.52
2018-11-21T09:16:08.654Z,18.55
2018-11-21T09:17:12.726Z,19.07
2018-11-21T09:18:16.781Z,17.87
2018-11-21T09:19:20.824Z,19.90
2018-11-21T09:20:24.912Z,19.50
2018-11-21T09:21:28.922Z,19.05
2018-11-21T09:22:33.010Z,18.17
2018-11-21T09:23:37.204Z,19.17
2018-11-21T09:24:41.142Z,19.27
2018-11-21T09:25:45.197Z,18.42
2018-11-21T09:26:49.242Z,19.40
2018-11-21T09:27:53.363Z,18.95
2018-11-21T09:28:57.771Z,19.55
2018-11-21T09:30:02.149Z,18.90
2018-11-21T09:31:06.242Z,19.20
2018-11-21T09:32:10.279Z,19.70
2018-11-21T09:33:14.330Z,19.05
2018-11-21T09:34:18.382Z,18.30
2018-11-21T09:35:22.372Z,19.30
2018-11-21T09:36:26.384Z,19.17
2018-11-21T09:37:30.760Z,17.65
2018-11-21T09:38:34.870Z,18.02
2018-11-21T09:39:38.857Z,19.02
2018-11-21T09:40:43.257Z,19.15
2018-11-21T09:41:47.264Z,18.95
2018-11-21T09:42:52.727Z,17.87
2018-11-21T09:43:56.886Z,18.25
2018-11-21T09:45:01.343Z,19.12
2018-11-21T09:46:05.615Z,19.60
2018-11-21T09:47:09.675Z,19.65
2018-11-21T09:48:13.800Z,18.65
2018-11-21T09:49:17.799Z,20.17
2018-11-21T09:50:32.010Z,17.95
2018-11-21T09:51:36.092Z,18.98
2018-11-21T09:52:40.547Z,18.62
2018-11-21T09:53:44.579Z,19.12
2018-11-21T09:54:48.666Z,19.48
2018-11-21T09:55:53.576Z,19.82
2018-11-21T09:56:57.633Z,18.90
2018-11-21T09:58:01.739Z,19.45
2018-11-21T09:59:05.750Z,19.65
2018-11-21T10:00:47.882Z,19.95
2018-11-21T10:02:28.905Z,17.95
2018-11-21T10:03:34.493Z,19.48
2018-11-21T10:04:38.636Z,19.90
2018-11-21T10:05:43.211Z,18.55
2018-11-21T10:06:47.318Z,19.50
2018-11-21T10:08:08.847Z,19.23
2018-11-21T10:09:15.341Z,19.80
2018-11-21T10:10:19.409Z,19.27
2018-11-21T10:11:23.416Z,21.82
2018-11-21T10:12:27.554Z,20.65
2018-11-21T10:13:31.851Z,17.98
2018-11-21T10:14:36.220Z,19.20
2018-11-21T10:15:40.274Z,19.52
2018-11-21T10:16:44.318Z,18.42
2018-11-21T10:17:48.356Z,19.30
2018-11-21T10:18:54.022Z,18.82
2018-11-21T10:19:58.035Z,17.95
2018-11-21T10:21:02.328Z,18.37
2018-11-21T10:22:06.383Z,19.23
2018-11-21T10:23:10.629Z,19.10
2018-11-21T10:24:14.678Z,18.32
2018-11-21T10:25:18.710Z,16.93
2018-11-21T10:26:22.819Z,18.52
2018-11-21T10:27:26.835Z,16.75
2018-11-21T10:28:30.884Z,17.95
2018-11-21T10:29:35.455Z,17.37
2018-11-21T10:30:39.225Z,18.60
2018-11-21T10:31:43.301Z,19.42
2018-11-21T10:32:47.334Z,17.35
2018-11-21T10:33:51.642Z,20.57
2018-11-21T10:34:55.823Z,20.82
2018-11-21T10:35:59.911Z,18.92
2018-11-21T10:37:04.229Z,19.00
2018-11-21T10:38:08.329Z,20.27
2018-11-21T10:39:12.510Z,17.95
2018-11-21T10:40:16.834Z,15.90
2018-11-21T10:41:21.026Z,18.48
2018-11-21T10:42:25.063Z,17.52
2018-11-21T10:43:29.488Z,16.55
2018-11-21T10:44:33.569Z,16.67
2018-11-21T10:45:37.655Z,17.15
2018-11-21T10:46:41.977Z,17.90
2018-11-21T10:49:27.661Z,18.87
2018-11-21T10:50:33.031Z,16.97
2018-11-21T10:51:38.315Z,18.12
2018-11-21T10:52:44.380Z,14.95
2018-11-21T10:53:49.849Z,16.65
2018-11-21T10:54:55.360Z,18.60
2018-11-21T10:56:00.713Z,18.57
2018-11-21T10:57:06.278Z,17.70
2018-11-21T10:58:12.531Z,18.23
2018-11-21T10:59:17.938Z,17.92
2018-11-21T11:00:41.207Z,18.73
2018-11-21T11:02:03.860Z,16.50
2018-11-21T11:03:11.583Z,17.98
2018-11-21T11:04:40.228Z,17.70
2018-11-21T11:06:04.152Z,16.80
2018-11-21T11:07:31.091Z,17.20
2018-11-21T11:08:54.116Z,18.60
2018-11-21T11:10:16.981Z,20.05
2018-11-21T11:11:50.192Z,19.65
2018-11-21T11:13:23.444Z,17.95
2018-11-21T11:15:06.025Z,17.10
2018-11-21T11:16:30.022Z,17.30
2018-11-21T11:17:52.823Z,18.52
2018-11-21T11:19:15.387Z,20.05
2018-11-21T11:20:39.399Z,18.02
2018-11-21T11:22:02.431Z,20.02
2018-11-21T11:23:21.054Z,19.37
2018-11-21T11:24:43.899Z,18.12
2018-11-21T11:26:23.210Z,19.02
2018-11-21T11:27:53.574Z,17.15
2018-11-21T11:29:21.686Z,17.75
2018-11-21T11:30:44.734Z,19.02
2018-11-21T11:32:08.795Z,18.35
2018-11-21T11:33:31.550Z,18.60
2018-11-21T11:35:04.722Z,16.50
2018-11-21T11:36:31.723Z,17.62
2018-11-21T11:37:55.732Z,18.82
2018-11-21T11:39:18.723Z,17.70
2018-11-21T11:40:48.311Z,18.77
2018-11-21T11:42:16.996Z,17.67
2018-11-21T11:43:39.989Z,18.87
2018-11-21T11:45:14.497Z,19.15
2018-11-21T11:46:37.859Z,18.25
2018-11-21T11:47:59.905Z,17.73
2018-11-21T11:49:27.402Z,18.57
2018-11-21T11:50:47.079Z,18.05
2018-11-21T11:52:11.596Z,17.45
2018-11-21T11:53:43.820Z,17.52
2018-11-21T11:55:13.653Z,17.90
2018-11-21T11:56:39.925Z,17.57
2018-11-21T11:58:00.021Z,16.65
2018-11-21T11:59:32.496Z,16.17
2018-11-21T12:01:05.803Z,17.02
2018-11-21T12:02:29.362Z,16.25
2018-11-21T12:03:57.745Z,16.87
2018-11-21T12:05:11.655Z,17.23
2018-11-21T12:06:34.219Z,17.35
2018-11-21T12:07:58.358Z,16.70
2018-11-21T12:09:29.347Z,17.20
2018-11-21T12:10:53.161Z,26.45
2018-11-21T12:12:26.617Z,17.80
2018-11-21T12:13:50.769Z,16.80
2018-11-21T12:15:20.620Z,15.60
2018-11-21T12:16:44.838Z,17.87
2018-11-21T12:18:12.373Z,18.50
2018-11-21T12:19:30.257Z,17.77
2018-11-21T12:20:54.293Z,18.48
2018-11-21T12:22:19.176Z,18.05
2018-11-21T12:23:41.655Z,17.70
2018-11-21T12:25:20.812Z,19.37
2018-11-21T12:26:51.618Z,18.20
2018-11-21T12:28:24.450Z,18.15
2018-11-21T12:29:51.533Z,16.52
2018-11-21T12:31:13.578Z,18.12
2018-11-21T12:32:40.337Z,17.73
2018-11-21T12:34:02.785Z,17.17
2018-11-21T12:35:43.132Z,19.27
2018-11-21T12:37:05.758Z,17.07
2018-11-21T12:38:20.525Z,17.45
2018-11-21T12:39:37.166Z,20.32
2018-11-21T12:41:03.959Z,17.20
2018-11-21T12:42:28.134Z,18.45
2018-11-21T12:43:49.930Z,18.62
2018-11-21T12:45:32.699Z,18.32
2018-11-21T12:47:15.103Z,18.07
2018-11-21T12:48:37.569Z,17.27
2018-11-21T12:50:19.973Z,19.12
2018-11-21T12:51:50.523Z,18.77
2018-11-21T12:53:20.492Z,18.73
2018-11-21T12:54:53.408Z,21.02
2018-11-21T12:56:26.466Z,17.98
2018-11-21T12:57:47.239Z,19.57
2018-11-21T12:59:09.918Z,18.52
2018-11-21T13:00:32.628Z,16.97
2018-11-21T13:01:57.043Z,16.27
2018-11-21T13:03:29.829Z,17.67
2018-11-21T13:04:56.397Z,17.77
2018-11-21T13:06:23.269Z,17.23
2018-11-21T13:07:46.513Z,16.97
2018-11-21T13:09:10.579Z,19.15
2018-11-21T13:10:37.820Z,17.35
2018-11-21T13:12:00.378Z,18.65
2018-11-21T13:13:30.261Z,17.52
2018-11-21T13:14:43.731Z,18.90
2018-11-21T13:16:26.057Z,17.50
2018-11-21T13:17:39.781Z,18.12
2018-11-21T13:19:02.847Z,18.87
2018-11-21T13:20:30.156Z,20.85
2018-11-21T13:21:46.962Z,19.20
2018-11-21T13:23:02.300Z,17.75
2018-11-21T13:24:19.162Z,18.75
2018-11-21T13:25:42.230Z,19.17
2018-11-21T13:27:04.945Z,19.30
2018-11-21T13:28:41.278Z,18.10
2018-11-21T13:30:04.261Z,18.50
2018-11-21T13:31:27.168Z,16.45
2018-11-21T13:32:50.282Z,19.48
2018-11-21T13:34:21.559Z,18.17
2018-11-21T13:35:42.210Z,17.20
2018-11-21T13:37:04.826Z,17.82
2018-11-21T13:38:31.631Z,18.75
2018-11-21T13:39:58.769Z,19.77
2018-11-21T13:41:34.879Z,18.27
2018-11-21T13:42:52.103Z,18.23
2018-11-21T13:44:15.194Z,17.10
2018-11-21T13:45:44.892Z,18.52
2018-11-21T13:47:08.875Z,17.92
2018-11-21T13:48:31.730Z,18.32
2018-11-21T13:50:08.036Z,19.00
2018-11-21T13:51:39.276Z,15.95
2018-11-21T13:53:03.452Z,18.00
2018-11-21T13:54:25.673Z,19.02
2018-11-21T13:55:31.003Z,18.42
2018-11-21T13:56:36.543Z,18.05
2018-11-21T13:57:41.928Z,18.17
2018-11-21T13:58:47.288Z,19.07
2018-11-21T13:59:52.631Z,18.92
2018-11-21T14:00:57.967Z,18.67
2018-11-21T14:02:03.494Z,18.40
2018-11-21T14:03:08.935Z,18.40
2018-11-21T14:04:14.171Z,20.77
2018-11-21T14:05:19.928Z,19.50
2018-11-21T14:06:25.209Z,18.45
2018-11-21T14:07:30.561Z,18.52
2018-11-21T14:08:35.909Z,18.20
2018-11-21T14:09:41.505Z,18.30
2018-11-21T14:10:46.734Z,19.23
2018-11-21T14:11:53.131Z,17.15
2018-11-21T14:12:58.446Z,17.55
2018-11-21T14:14:04.006Z,18.17
2018-11-21T14:15:10.396Z,18.98
2018-11-21T14:16:15.925Z,19.00
2018-11-21T14:17:27.606Z,20.43
2018-11-21T14:18:26.633Z,19.17
2018-11-21T14:19:32.051Z,18.45
2018-11-21T14:20:37.540Z,18.12
2018-11-21T14:21:42.855Z,18.57
2018-11-21T14:22:48.822Z,18.05
2018-11-21T14:23:54.460Z,18.45
2018-11-21T14:24:59.863Z,20.30
2018-11-21T14:26:05.050Z,18.35
2018-11-21T14:27:10.278Z,18.75
2018-11-21T14:28:15.628Z,18.75
2018-11-21T14:29:21.069Z,18.95
2018-11-21T14:30:26.526Z,18.77
2018-11-21T14:31:32.845Z,19.17
2018-11-21T14:32:38.258Z,19.45
2018-11-21T14:33:43.666Z,20.08
2018-11-21T14:34:49.027Z,19.30
2018-11-21T14:35:56.137Z,19.90
2018-11-21T14:37:00.013Z,22.17
2018-11-21T14:38:05.466Z,19.82
2018-11-21T14:39:12.483Z,19.80
2018-11-21T14:40:19.172Z,17.87
2018-11-21T14:41:24.613Z,17.98
2018-11-21T14:42:30.099Z,18.20
2018-11-21T14:43:35.437Z,19.85
2018-11-21T14:44:40.906Z,16.95